Главная страница
METAR-TAF:

METAR-TAF

Аэропорты :

Йёнчёпинг, Швеция

широта: 57-46N, долгота: 014-05E, высота над уровнем моря: 226 м

Текущие метеонаблюдения

Эта сводка был подготовлена 12 минут назад, в 22:20 UTC
Ветер 5 Узел от юго-восточный
Температура 17°C
Влажность 77%
Давление 1009 hPa
Видимость 10 км и более
Нет облачности ниже 1500 м, и нет кучево-дождевой облачности

METAR: ESGJ 212220Z 13005KT CAVOK 17/13 Q1009

Время: 00:32 (22:32 UTC)

Прогноз

Эта сводка был подготовлена 2 часа и 2 минут назад, в 20:30 UTC
Прогноз действительный с 21-го 21 UTC до 22-го 01 UTC
Ветер 5 Узел от восточно-юго-восточный
Видимость 10 км и более
Нет облачности ниже 1500 м, и нет кучево-дождевой облачности

TAF: ESGJ 212030Z 2121/2201 12005KT CAVOK

Метеонаблюдения и прогнозы для более 4000 аэропортов (сводки METAR и TAF).

Имеющиеся станции представлены на карте желтыми и красными точками.

Чтобы увидеть название станции, наведите на нее мышь.

Затем щелкните, чтобы увидеть метеонаблюдения и метеопрогнозы.

Управление картой: чтобы увеличить масштаб, щелкните зеленые кнопки с черным крестиком; чтобы уменьшить масштаб, щелкните зеленую кнопку с тире; для просмотра соседних карт щелкайте зеленые стрелки.


METAR-TAF: